sensor_id;sensor_type;location;lat;lon;timestamp;P1;durP1;ratioP1;P2;durP2;ratioP2
18445;SDS011;9352;50.888;4.466;2023-03-16T00:00:40;7.47;;;3.60;;
18445;SDS011;9352;50.888;4.466;2023-03-16T00:03:08;9.82;;;3.70;;
18445;SDS011;9352;50.888;4.466;2023-03-16T00:05:35;9.10;;;3.67;;
18445;SDS011;9352;50.888;4.466;2023-03-16T00:08:02;10.30;;;3.78;;
18445;SDS011;9352;50.888;4.466;2023-03-16T00:10:29;6.50;;;3.45;;
18445;SDS011;9352;50.888;4.466;2023-03-16T00:12:56;9.95;;;3.95;;
18445;SDS011;9352;50.888;4.466;2023-03-16T00:15:23;13.68;;;3.83;;
18445;SDS011;9352;50.888;4.466;2023-03-16T00:17:51;5.35;;;3.45;;
18445;SDS011;9352;50.888;4.466;2023-03-16T00:20:18;7.50;;;3.67;;
18445;SDS011;9352;50.888;4.466;2023-03-16T00:22:46;6.03;;;3.70;;
18445;SDS011;9352;50.888;4.466;2023-03-16T00:25:13;6.07;;;3.47;;
18445;SDS011;9352;50.888;4.466;2023-03-16T00:27:41;5.97;;;3.45;;
18445;SDS011;9352;50.888;4.466;2023-03-16T00:30:09;11.95;;;3.47;;
18445;SDS011;9352;50.888;4.466;2023-03-16T00:32:36;5.38;;;3.20;;
18445;SDS011;9352;50.888;4.466;2023-03-16T00:35:05;8.75;;;3.55;;
18445;SDS011;9352;50.888;4.466;2023-03-16T00:37:32;8.23;;;3.40;;
18445;SDS011;9352;50.888;4.466;2023-03-16T00:40:00;6.95;;;3.35;;
18445;SDS011;9352;50.888;4.466;2023-03-16T00:42:28;5.70;;;3.35;;
18445;SDS011;9352;50.888;4.466;2023-03-16T00:44:58;6.28;;;3.20;;
18445;SDS011;9352;50.888;4.466;2023-03-16T00:47:26;6.80;;;3.28;;
18445;SDS011;9352;50.888;4.466;2023-03-16T00:49:54;6.30;;;3.10;;
18445;SDS011;9352;50.888;4.466;2023-03-16T00:52:23;7.35;;;3.40;;
18445;SDS011;9352;50.888;4.466;2023-03-16T00:54:51;6.20;;;3.35;;
18445;SDS011;9352;50.888;4.466;2023-03-16T00:57:20;3.75;;;2.85;;
18445;SDS011;9352;50.888;4.466;2023-03-16T00:59:48;6.28;;;2.95;;
18445;SDS011;9352;50.888;4.466;2023-03-16T01:02:16;7.53;;;3.00;;
18445;SDS011;9352;50.888;4.466;2023-03-16T01:04:47;6.43;;;3.20;;
18445;SDS011;9352;50.888;4.466;2023-03-16T01:07:14;7.88;;;3.50;;
18445;SDS011;9352;50.888;4.466;2023-03-16T01:09:42;9.93;;;3.10;;
18445;SDS011;9352;50.888;4.466;2023-03-16T01:12:10;5.03;;;2.80;;
18445;SDS011;9352;50.888;4.466;2023-03-16T01:14:39;4.93;;;2.90;;
18445;SDS011;9352;50.888;4.466;2023-03-16T01:17:07;5.57;;;2.65;;
18445;SDS011;9352;50.888;4.466;2023-03-16T01:19:34;8.77;;;2.90;;
18445;SDS011;9352;50.888;4.466;2023-03-16T01:22:02;4.47;;;2.88;;
18445;SDS011;9352;50.888;4.466;2023-03-16T01:24:29;5.80;;;2.80;;
18445;SDS011;9352;50.888;4.466;2023-03-16T01:26:58;3.58;;;2.80;;
18445;SDS011;9352;50.888;4.466;2023-03-16T01:29:25;6.10;;;2.72;;
18445;SDS011;9352;50.888;4.466;2023-03-16T01:31:51;6.10;;;2.80;;
18445;SDS011;9352;50.888;4.466;2023-03-16T01:34:20;4.85;;;2.85;;
18445;SDS011;9352;50.888;4.466;2023-03-16T01:36:47;5.97;;;2.55;;
18445;SDS011;9352;50.888;4.466;2023-03-16T01:39:15;3.70;;;2.65;;
18445;SDS011;9352;50.888;4.466;2023-03-16T01:41:43;4.10;;;2.50;;
18445;SDS011;9352;50.888;4.466;2023-03-16T01:44:13;2.83;;;2.25;;
18445;SDS011;9352;50.888;4.466;2023-03-16T01:46:42;6.13;;;2.47;;
18445;SDS011;9352;50.888;4.466;2023-03-16T01:49:09;4.90;;;2.60;;
18445;SDS011;9352;50.888;4.466;2023-03-16T01:51:40;7.28;;;2.40;;
18445;SDS011;9352;50.888;4.466;2023-03-16T01:54:10;6.32;;;2.38;;
18445;SDS011;9352;50.888;4.466;2023-03-16T01:56:43;7.70;;;2.58;;
18445;SDS011;9352;50.888;4.466;2023-03-16T01:59:17;4.40;;;2.22;;
18445;SDS011;9352;50.888;4.466;2023-03-16T02:01:46;8.15;;;2.55;;
18445;SDS011;9352;50.888;4.466;2023-03-16T02:04:25;3.30;;;2.55;;
18445;SDS011;9352;50.888;4.466;2023-03-16T02:07:00;7.60;;;2.95;;
18445;SDS011;9352;50.888;4.466;2023-03-16T02:09:30;6.68;;;2.42;;
18445;SDS011;9352;50.888;4.466;2023-03-16T02:11:58;5.35;;;2.25;;
18445;SDS011;9352;50.888;4.466;2023-03-16T02:14:27;5.20;;;2.40;;
18445;SDS011;9352;50.888;4.466;2023-03-16T02:16:54;4.68;;;2.72;;
18445;SDS011;9352;50.888;4.466;2023-03-16T02:19:25;6.60;;;2.35;;
18445;SDS011;9352;50.888;4.466;2023-03-16T02:22:00;3.88;;;2.35;;
18445;SDS011;9352;50.888;4.466;2023-03-16T02:24:29;3.72;;;2.35;;
18445;SDS011;9352;50.888;4.466;2023-03-16T02:26:56;8.02;;;2.40;;
18445;SDS011;9352;50.888;4.466;2023-03-16T02:29:40;5.85;;;2.50;;
18445;SDS011;9352;50.888;4.466;2023-03-16T02:32:20;2.45;;;2.25;;
18445;SDS011;9352;50.888;4.466;2023-03-16T02:34:49;7.03;;;2.38;;
18445;SDS011;9352;50.888;4.466;2023-03-16T02:37:16;6.45;;;2.30;;
18445;SDS011;9352;50.888;4.466;2023-03-16T02:39:44;6.28;;;2.70;;
18445;SDS011;9352;50.888;4.466;2023-03-16T02:42:11;6.90;;;2.20;;
18445;SDS011;9352;50.888;4.466;2023-03-16T02:44:42;4.07;;;2.22;;
18445;SDS011;9352;50.888;4.466;2023-03-16T02:47:14;3.80;;;2.30;;
18445;SDS011;9352;50.888;4.466;2023-03-16T02:49:47;2.47;;;2.00;;
18445;SDS011;9352;50.888;4.466;2023-03-16T02:52:14;4.18;;;2.17;;
18445;SDS011;9352;50.888;4.466;2023-03-16T02:54:40;4.43;;;2.30;;
18445;SDS011;9352;50.888;4.466;2023-03-16T02:57:07;6.07;;;2.20;;
18445;SDS011;9352;50.888;4.466;2023-03-16T02:59:34;3.33;;;2.17;;
18445;SDS011;9352;50.888;4.466;2023-03-16T03:02:03;5.57;;;2.20;;
18445;SDS011;9352;50.888;4.466;2023-03-16T03:04:30;6.20;;;2.45;;
18445;SDS011;9352;50.888;4.466;2023-03-16T03:06:57;4.10;;;2.50;;
18445;SDS011;9352;50.888;4.466;2023-03-16T03:09:28;5.50;;;2.30;;
18445;SDS011;9352;50.888;4.466;2023-03-16T03:11:56;4.97;;;2.22;;
18445;SDS011;9352;50.888;4.466;2023-03-16T03:14:23;6.80;;;2.13;;
18445;SDS011;9352;50.888;4.466;2023-03-16T03:16:52;8.13;;;2.47;;
18445;SDS011;9352;50.888;4.466;2023-03-16T03:19:20;6.38;;;2.13;;
18445;SDS011;9352;50.888;4.466;2023-03-16T03:21:48;5.32;;;2.30;;
18445;SDS011;9352;50.888;4.466;2023-03-16T03:24:15;5.18;;;2.67;;
18445;SDS011;9352;50.888;4.466;2023-03-16T03:26:43;4.90;;;2.17;;
18445;SDS011;9352;50.888;4.466;2023-03-16T03:29:10;6.88;;;2.20;;
18445;SDS011;9352;50.888;4.466;2023-03-16T03:31:37;9.23;;;2.50;;
18445;SDS011;9352;50.888;4.466;2023-03-16T03:34:04;6.25;;;2.30;;
18445;SDS011;9352;50.888;4.466;2023-03-16T03:36:33;6.80;;;2.70;;
18445;SDS011;9352;50.888;4.466;2023-03-16T03:39:00;3.20;;;2.00;;
18445;SDS011;9352;50.888;4.466;2023-03-16T03:41:29;5.65;;;2.13;;
18445;SDS011;9352;50.888;4.466;2023-03-16T03:43:57;6.57;;;2.65;;
18445;SDS011;9352;50.888;4.466;2023-03-16T03:46:24;5.32;;;2.65;;
18445;SDS011;9352;50.888;4.466;2023-03-16T03:48:51;6.70;;;2.65;;
18445;SDS011;9352;50.888;4.466;2023-03-16T03:51:18;5.70;;;2.25;;
18445;SDS011;9352;50.888;4.466;2023-03-16T03:53:47;7.32;;;2.20;;
18445;SDS011;9352;50.888;4.466;2023-03-16T03:56:14;8.90;;;2.30;;
18445;SDS011;9352;50.888;4.466;2023-03-16T03:58:40;7.55;;;2.33;;
18445;SDS011;9352;50.888;4.466;2023-03-16T04:01:07;6.15;;;2.58;;
18445;SDS011;9352;50.888;4.466;2023-03-16T04:03:34;6.30;;;2.42;;
18445;SDS011;9352;50.888;4.466;2023-03-16T04:06:01;5.22;;;2.78;;
18445;SDS011;9352;50.888;4.466;2023-03-16T04:08:28;4.70;;;2.50;;
18445;SDS011;9352;50.888;4.466;2023-03-16T04:10:56;6.85;;;2.13;;
18445;SDS011;9352;50.888;4.466;2023-03-16T04:13:23;6.88;;;2.30;;
18445;SDS011;9352;50.888;4.466;2023-03-16T04:15:54;3.72;;;2.00;;
18445;SDS011;9352;50.888;4.466;2023-03-16T04:18:22;2.88;;;2.60;;
18445;SDS011;9352;50.888;4.466;2023-03-16T04:20:49;4.68;;;2.15;;
18445;SDS011;9352;50.888;4.466;2023-03-16T04:23:17;5.43;;;2.35;;
18445;SDS011;9352;50.888;4.466;2023-03-16T04:25:44;6.55;;;2.20;;
18445;SDS011;9352;50.888;4.466;2023-03-16T04:28:12;5.68;;;2.00;;
18445;SDS011;9352;50.888;4.466;2023-03-16T04:30:42;4.68;;;2.50;;
18445;SDS011;9352;50.888;4.466;2023-03-16T04:33:08;10.07;;;2.50;;
18445;SDS011;9352;50.888;4.466;2023-03-16T04:35:35;7.53;;;2.33;;
18445;SDS011;9352;50.888;4.466;2023-03-16T04:38:02;2.72;;;1.90;;
18445;SDS011;9352;50.888;4.466;2023-03-16T04:40:29;7.55;;;2.10;;
18445;SDS011;9352;50.888;4.466;2023-03-16T04:42:56;6.65;;;2.05;;
18445;SDS011;9352;50.888;4.466;2023-03-16T04:45:24;6.18;;;2.30;;
18445;SDS011;9352;50.888;4.466;2023-03-16T04:47:51;9.48;;;2.17;;
18445;SDS011;9352;50.888;4.466;2023-03-16T04:50:18;5.53;;;2.50;;
18445;SDS011;9352;50.888;4.466;2023-03-16T04:52:45;4.93;;;2.28;;
18445;SDS011;9352;50.888;4.466;2023-03-16T04:55:12;3.25;;;2.03;;
18445;SDS011;9352;50.888;4.466;2023-03-16T04:57:39;4.45;;;2.28;;
18445;SDS011;9352;50.888;4.466;2023-03-16T05:00:06;4.80;;;2.17;;
18445;SDS011;9352;50.888;4.466;2023-03-16T05:02:41;4.85;;;2.00;;
18445;SDS011;9352;50.888;4.466;2023-03-16T05:05:08;7.82;;;2.40;;
18445;SDS011;9352;50.888;4.466;2023-03-16T05:07:35;6.57;;;2.08;;
18445;SDS011;9352;50.888;4.466;2023-03-16T05:10:02;4.88;;;2.00;;
18445;SDS011;9352;50.888;4.466;2023-03-16T05:12:29;4.63;;;2.33;;
18445;SDS011;9352;50.888;4.466;2023-03-16T05:14:56;9.10;;;2.60;;
18445;SDS011;9352;50.888;4.466;2023-03-16T05:17:23;4.90;;;2.50;;
18445;SDS011;9352;50.888;4.466;2023-03-16T05:19:51;8.30;;;2.38;;
18445;SDS011;9352;50.888;4.466;2023-03-16T05:22:18;7.20;;;2.35;;
18445;SDS011;9352;50.888;4.466;2023-03-16T05:24:45;5.53;;;2.45;;
18445;SDS011;9352;50.888;4.466;2023-03-16T05:27:12;6.40;;;2.17;;
18445;SDS011;9352;50.888;4.466;2023-03-16T05:29:39;4.95;;;2.10;;
18445;SDS011;9352;50.888;4.466;2023-03-16T05:32:10;4.60;;;2.00;;
18445;SDS011;9352;50.888;4.466;2023-03-16T05:34:37;7.00;;;2.22;;
18445;SDS011;9352;50.888;4.466;2023-03-16T05:37:05;3.75;;;2.00;;
18445;SDS011;9352;50.888;4.466;2023-03-16T05:39:32;4.70;;;1.95;;
18445;SDS011;9352;50.888;4.466;2023-03-16T05:41:59;7.18;;;2.35;;
18445;SDS011;9352;50.888;4.466;2023-03-16T05:44:26;5.63;;;2.30;;
18445;SDS011;9352;50.888;4.466;2023-03-16T05:46:53;7.80;;;2.55;;
18445;SDS011;9352;50.888;4.466;2023-03-16T05:49:20;6.72;;;2.45;;
18445;SDS011;9352;50.888;4.466;2023-03-16T05:51:47;2.58;;;1.90;;
18445;SDS011;9352;50.888;4.466;2023-03-16T05:54:16;6.55;;;2.33;;
18445;SDS011;9352;50.888;4.466;2023-03-16T05:56:43;6.20;;;2.20;;
18445;SDS011;9352;50.888;4.466;2023-03-16T05:59:10;3.45;;;2.17;;
18445;SDS011;9352;50.888;4.466;2023-03-16T06:01:36;9.35;;;2.45;;
18445;SDS011;9352;50.888;4.466;2023-03-16T06:04:04;4.68;;;2.08;;
18445;SDS011;9352;50.888;4.466;2023-03-16T06:06:31;7.80;;;2.55;;
18445;SDS011;9352;50.888;4.466;2023-03-16T06:08:58;5.05;;;2.30;;
18445;SDS011;9352;50.888;4.466;2023-03-16T06:11:26;3.75;;;1.80;;
18445;SDS011;9352;50.888;4.466;2023-03-16T06:13:53;5.60;;;2.03;;
18445;SDS011;9352;50.888;4.466;2023-03-16T06:16:21;3.65;;;1.90;;
18445;SDS011;9352;50.888;4.466;2023-03-16T06:18:48;4.13;;;2.13;;
18445;SDS011;9352;50.888;4.466;2023-03-16T06:21:16;5.07;;;2.20;;
18445;SDS011;9352;50.888;4.466;2023-03-16T06:23:43;3.55;;;2.30;;
18445;SDS011;9352;50.888;4.466;2023-03-16T06:26:10;4.75;;;1.88;;
18445;SDS011;9352;50.888;4.466;2023-03-16T06:28:38;5.30;;;2.17;;
18445;SDS011;9352;50.888;4.466;2023-03-16T06:31:05;7.53;;;2.38;;
18445;SDS011;9352;50.888;4.466;2023-03-16T06:33:32;7.30;;;2.40;;
18445;SDS011;9352;50.888;4.466;2023-03-16T06:35:59;7.20;;;2.25;;
18445;SDS011;9352;50.888;4.466;2023-03-16T06:38:26;6.75;;;1.80;;
18445;SDS011;9352;50.888;4.466;2023-03-16T06:40:53;10.55;;;2.60;;
18445;SDS011;9352;50.888;4.466;2023-03-16T06:43:20;2.75;;;2.08;;
18445;SDS011;9352;50.888;4.466;2023-03-16T06:45:48;5.18;;;2.25;;
18445;SDS011;9352;50.888;4.466;2023-03-16T06:48:15;6.78;;;2.33;;
18445;SDS011;9352;50.888;4.466;2023-03-16T06:50:43;7.88;;;2.53;;
18445;SDS011;9352;50.888;4.466;2023-03-16T06:53:11;11.18;;;2.20;;
18445;SDS011;9352;50.888;4.466;2023-03-16T06:55:37;4.22;;;1.95;;
18445;SDS011;9352;50.888;4.466;2023-03-16T06:58:05;6.78;;;2.22;;
18445;SDS011;9352;50.888;4.466;2023-03-16T07:00:32;6.65;;;2.10;;
18445;SDS011;9352;50.888;4.466;2023-03-16T07:03:01;9.18;;;2.05;;
18445;SDS011;9352;50.888;4.466;2023-03-16T07:05:28;5.30;;;2.22;;
18445;SDS011;9352;50.888;4.466;2023-03-16T07:07:55;4.25;;;2.20;;
18445;SDS011;9352;50.888;4.466;2023-03-16T07:10:22;5.10;;;1.95;;
18445;SDS011;9352;50.888;4.466;2023-03-16T07:12:49;5.18;;;2.00;;
18445;SDS011;9352;50.888;4.466;2023-03-16T07:15:16;6.40;;;2.08;;
18445;SDS011;9352;50.888;4.466;2023-03-16T07:17:43;10.05;;;2.40;;
18445;SDS011;9352;50.888;4.466;2023-03-16T07:20:12;5.45;;;2.30;;
18445;SDS011;9352;50.888;4.466;2023-03-16T07:22:39;8.10;;;2.00;;
18445;SDS011;9352;50.888;4.466;2023-03-16T07:25:07;5.45;;;2.20;;
18445;SDS011;9352;50.888;4.466;2023-03-16T07:27:35;27.92;;;3.33;;
18445;SDS011;9352;50.888;4.466;2023-03-16T07:30:03;6.25;;;2.20;;
18445;SDS011;9352;50.888;4.466;2023-03-16T07:32:30;5.60;;;2.05;;
18445;SDS011;9352;50.888;4.466;2023-03-16T07:34:57;3.90;;;2.13;;
18445;SDS011;9352;50.888;4.466;2023-03-16T07:37:26;8.75;;;2.10;;
18445;SDS011;9352;50.888;4.466;2023-03-16T07:39:53;5.07;;;2.15;;
18445;SDS011;9352;50.888;4.466;2023-03-16T07:42:19;5.95;;;2.15;;
18445;SDS011;9352;50.888;4.466;2023-03-16T07:44:47;6.53;;;1.85;;
18445;SDS011;9352;50.888;4.466;2023-03-16T07:47:14;7.57;;;2.15;;
18445;SDS011;9352;50.888;4.466;2023-03-16T07:49:41;6.45;;;2.85;;
18445;SDS011;9352;50.888;4.466;2023-03-16T07:52:08;7.82;;;1.70;;
18445;SDS011;9352;50.888;4.466;2023-03-16T07:54:39;6.18;;;1.90;;
18445;SDS011;9352;50.888;4.466;2023-03-16T07:57:06;9.70;;;1.92;;
18445;SDS011;9352;50.888;4.466;2023-03-16T07:59:33;3.53;;;2.08;;
18445;SDS011;9352;50.888;4.466;2023-03-16T08:02:01;4.28;;;2.20;;
18445;SDS011;9352;50.888;4.466;2023-03-16T08:04:28;5.30;;;2.00;;
18445;SDS011;9352;50.888;4.466;2023-03-16T08:06:55;3.72;;;1.80;;
18445;SDS011;9352;50.888;4.466;2023-03-16T08:09:24;9.65;;;1.85;;
18445;SDS011;9352;50.888;4.466;2023-03-16T08:11:52;7.57;;;1.83;;
18445;SDS011;9352;50.888;4.466;2023-03-16T08:14:19;2.80;;;1.65;;
18445;SDS011;9352;50.888;4.466;2023-03-16T08:16:47;4.43;;;1.95;;
18445;SDS011;9352;50.888;4.466;2023-03-16T08:19:14;7.18;;;1.70;;
18445;SDS011;9352;50.888;4.466;2023-03-16T08:21:44;4.50;;;1.60;;
18445;SDS011;9352;50.888;4.466;2023-03-16T08:24:11;7.20;;;1.40;;
18445;SDS011;9352;50.888;4.466;2023-03-16T08:26:38;6.75;;;1.65;;
18445;SDS011;9352;50.888;4.466;2023-03-16T08:29:06;4.28;;;1.70;;
18445;SDS011;9352;50.888;4.466;2023-03-16T08:31:33;3.90;;;1.65;;
18445;SDS011;9352;50.888;4.466;2023-03-16T08:34:00;5.40;;;1.98;;
18445;SDS011;9352;50.888;4.466;2023-03-16T08:36:28;2.42;;;1.40;;
18445;SDS011;9352;50.888;4.466;2023-03-16T08:38:55;12.18;;;2.55;;
18445;SDS011;9352;50.888;4.466;2023-03-16T08:41:24;3.40;;;1.40;;
18445;SDS011;9352;50.888;4.466;2023-03-16T08:43:54;4.47;;;1.88;;
18445;SDS011;9352;50.888;4.466;2023-03-16T08:46:23;4.45;;;1.48;;
18445;SDS011;9352;50.888;4.466;2023-03-16T08:48:50;2.42;;;1.42;;
18445;SDS011;9352;50.888;4.466;2023-03-16T08:51:20;1.80;;;1.35;;
18445;SDS011;9352;50.888;4.466;2023-03-16T08:53:47;6.10;;;1.55;;
18445;SDS011;9352;50.888;4.466;2023-03-16T08:56:13;2.25;;;2.05;;
18445;SDS011;9352;50.888;4.466;2023-03-16T08:58:41;3.42;;;1.80;;
18445;SDS011;9352;50.888;4.466;2023-03-16T09:01:09;3.65;;;1.50;;
18445;SDS011;9352;50.888;4.466;2023-03-16T09:03:39;3.53;;;1.40;;
18445;SDS011;9352;50.888;4.466;2023-03-16T09:06:07;1.73;;;1.52;;
18445;SDS011;9352;50.888;4.466;2023-03-16T09:08:35;4.53;;;1.70;;
18445;SDS011;9352;50.888;4.466;2023-03-16T09:11:04;3.75;;;1.70;;
18445;SDS011;9352;50.888;4.466;2023-03-16T09:13:32;2.25;;;1.58;;
18445;SDS011;9352;50.888;4.466;2023-03-16T09:16:00;3.45;;;1.67;;
18445;SDS011;9352;50.888;4.466;2023-03-16T09:18:28;5.72;;;2.92;;
18445;SDS011;9352;50.888;4.466;2023-03-16T09:20:57;2.28;;;1.70;;
18445;SDS011;9352;50.888;4.466;2023-03-16T09:23:25;4.22;;;1.63;;
18445;SDS011;9352;50.888;4.466;2023-03-16T09:25:52;2.95;;;1.48;;
18445;SDS011;9352;50.888;4.466;2023-03-16T09:28:23;7.43;;;1.65;;
18445;SDS011;9352;50.888;4.466;2023-03-16T09:30:51;2.75;;;1.67;;
18445;SDS011;9352;50.888;4.466;2023-03-16T09:33:19;5.85;;;1.95;;
18445;SDS011;9352;50.888;4.466;2023-03-16T09:35:46;2.63;;;1.60;;
18445;SDS011;9352;50.888;4.466;2023-03-16T09:38:14;6.93;;;1.80;;
18445;SDS011;9352;50.888;4.466;2023-03-16T09:40:42;3.35;;;1.35;;
18445;SDS011;9352;50.888;4.466;2023-03-16T09:43:25;1.80;;;1.40;;
18445;SDS011;9352;50.888;4.466;2023-03-16T09:46:20;2.03;;;1.50;;
18445;SDS011;9352;50.888;4.466;2023-03-16T09:48:52;4.15;;;1.50;;
18445;SDS011;9352;50.888;4.466;2023-03-16T09:51:22;11.85;;;1.58;;
18445;SDS011;9352;50.888;4.466;2023-03-16T09:54:02;4.78;;;1.52;;
18445;SDS011;9352;50.888;4.466;2023-03-16T09:56:39;3.03;;;1.60;;
18445;SDS011;9352;50.888;4.466;2023-03-16T09:59:09;1.70;;;1.40;;
18445;SDS011;9352;50.888;4.466;2023-03-16T10:01:39;1.55;;;1.42;;
18445;SDS011;9352;50.888;4.466;2023-03-16T10:04:20;8.48;;;1.40;;
18445;SDS011;9352;50.888;4.466;2023-03-16T10:07:02;8.45;;;2.05;;
18445;SDS011;9352;50.888;4.466;2023-03-16T10:09:40;1.60;;;1.50;;
18445;SDS011;9352;50.888;4.466;2023-03-16T10:12:12;3.67;;;1.75;;
18445;SDS011;9352;50.888;4.466;2023-03-16T10:14:43;3.30;;;1.60;;
18445;SDS011;9352;50.888;4.466;2023-03-16T10:17:17;4.07;;;1.48;;
18445;SDS011;9352;50.888;4.466;2023-03-16T10:19:47;5.38;;;1.25;;
18445;SDS011;9352;50.888;4.466;2023-03-16T10:22:19;2.53;;;1.20;;
18445;SDS011;9352;50.888;4.466;2023-03-16T10:25:00;8.40;;;1.70;;
18445;SDS011;9352;50.888;4.466;2023-03-16T10:27:32;1.90;;;1.38;;
18445;SDS011;9352;50.888;4.466;2023-03-16T10:30:03;3.25;;;1.10;;
18445;SDS011;9352;50.888;4.466;2023-03-16T10:32:33;4.68;;;1.50;;
18445;SDS011;9352;50.888;4.466;2023-03-16T10:35:02;1.92;;;1.23;;
18445;SDS011;9352;50.888;4.466;2023-03-16T10:37:32;2.67;;;1.42;;
18445;SDS011;9352;50.888;4.466;2023-03-16T10:40:06;4.05;;;1.30;;
18445;SDS011;9352;50.888;4.466;2023-03-16T10:42:36;4.13;;;1.40;;
18445;SDS011;9352;50.888;4.466;2023-03-16T10:45:03;1.30;;;1.20;;
18445;SDS011;9352;50.888;4.466;2023-03-16T10:47:32;1.55;;;1.20;;
18445;SDS011;9352;50.888;4.466;2023-03-16T10:50:09;2.17;;;1.40;;
18445;SDS011;9352;50.888;4.466;2023-03-16T10:52:38;1.40;;;1.30;;
18445;SDS011;9352;50.888;4.466;2023-03-16T10:55:10;1.65;;;1.27;;
18445;SDS011;9352;50.888;4.466;2023-03-16T10:57:42;5.47;;;1.30;;
18445;SDS011;9352;50.888;4.466;2023-03-16T11:00:15;5.68;;;2.17;;
18445;SDS011;9352;50.888;4.466;2023-03-16T11:02:45;4.10;;;1.52;;
18445;SDS011;9352;50.888;4.466;2023-03-16T11:05:14;4.72;;;1.23;;
18445;SDS011;9352;50.888;4.466;2023-03-16T11:07:55;4.03;;;1.55;;
18445;SDS011;9352;50.888;4.466;2023-03-16T11:10:28;6.22;;;1.33;;
18445;SDS011;9352;50.888;4.466;2023-03-16T11:13:05;2.88;;;1.10;;
18445;SDS011;9352;50.888;4.466;2023-03-16T11:15:38;1.73;;;1.00;;
18445;SDS011;9352;50.888;4.466;2023-03-16T11:18:13;3.75;;;1.10;;
18445;SDS011;9352;50.888;4.466;2023-03-16T11:20:55;3.33;;;1.52;;
18445;SDS011;9352;50.888;4.466;2023-03-16T11:23:27;4.85;;;1.45;;
18445;SDS011;9352;50.888;4.466;2023-03-16T11:25:59;4.40;;;1.15;;
18445;SDS011;9352;50.888;4.466;2023-03-16T11:28:35;2.33;;;1.10;;
18445;SDS011;9352;50.888;4.466;2023-03-16T11:31:07;4.93;;;1.35;;
18445;SDS011;9352;50.888;4.466;2023-03-16T11:33:42;2.05;;;1.40;;
18445;SDS011;9352;50.888;4.466;2023-03-16T11:36:16;1.48;;;1.30;;
18445;SDS011;9352;50.888;4.466;2023-03-16T11:38:56;2.80;;;1.20;;
18445;SDS011;9352;50.888;4.466;2023-03-16T11:41:32;4.53;;;1.33;;
18445;SDS011;9352;50.888;4.466;2023-03-16T11:44:06;2.40;;;1.38;;
18445;SDS011;9352;50.888;4.466;2023-03-16T11:46:45;1.92;;;1.40;;
18445;SDS011;9352;50.888;4.466;2023-03-16T11:49:30;4.82;;;1.30;;
18445;SDS011;9352;50.888;4.466;2023-03-16T11:52:10;1.85;;;1.17;;
18445;SDS011;9352;50.888;4.466;2023-03-16T11:54:45;4.25;;;1.20;;
18445;SDS011;9352;50.888;4.466;2023-03-16T11:57:26;4.28;;;1.13;;
18445;SDS011;9352;50.888;4.466;2023-03-16T12:00:07;3.88;;;1.30;;
18445;SDS011;9352;50.888;4.466;2023-03-16T12:02:54;3.45;;;1.50;;
18445;SDS011;9352;50.888;4.466;2023-03-16T12:05:54;3.75;;;1.23;;
18445;SDS011;9352;50.888;4.466;2023-03-16T12:08:27;1.95;;;1.20;;
18445;SDS011;9352;50.888;4.466;2023-03-16T12:11:04;5.82;;;1.30;;
18445;SDS011;9352;50.888;4.466;2023-03-16T12:13:52;2.58;;;1.13;;
18445;SDS011;9352;50.888;4.466;2023-03-16T12:16:31;3.45;;;1.13;;
18445;SDS011;9352;50.888;4.466;2023-03-16T12:19:08;1.38;;;1.25;;
18445;SDS011;9352;50.888;4.466;2023-03-16T12:21:41;2.85;;;1.30;;
18445;SDS011;9352;50.888;4.466;2023-03-16T12:24:12;9.20;;;1.70;;
18445;SDS011;9352;50.888;4.466;2023-03-16T12:26:43;4.50;;;1.45;;
18445;SDS011;9352;50.888;4.466;2023-03-16T12:29:16;2.35;;;1.40;;
18445;SDS011;9352;50.888;4.466;2023-03-16T12:31:53;2.20;;;1.50;;
18445;SDS011;9352;50.888;4.466;2023-03-16T12:34:25;4.57;;;1.90;;
18445;SDS011;9352;50.888;4.466;2023-03-16T12:37:07;3.00;;;1.40;;
18445;SDS011;9352;50.888;4.466;2023-03-16T12:39:58;2.17;;;1.30;;
18445;SDS011;9352;50.888;4.466;2023-03-16T12:42:55;4.57;;;1.30;;
18445;SDS011;9352;50.888;4.466;2023-03-16T12:45:35;7.22;;;1.50;;
18445;SDS011;9352;50.888;4.466;2023-03-16T12:48:11;4.20;;;1.38;;
18445;SDS011;9352;50.888;4.466;2023-03-16T12:50:47;3.65;;;1.42;;
18445;SDS011;9352;50.888;4.466;2023-03-16T12:53:25;2.60;;;1.20;;
18445;SDS011;9352;50.888;4.466;2023-03-16T12:55:54;4.15;;;1.40;;
18445;SDS011;9352;50.888;4.466;2023-03-16T12:58:22;1.13;;;1.13;;
18445;SDS011;9352;50.888;4.466;2023-03-16T13:00:57;3.50;;;1.80;;
18445;SDS011;9352;50.888;4.466;2023-03-16T13:03:25;12.20;;;1.67;;
18445;SDS011;9352;50.888;4.466;2023-03-16T13:05:54;1.75;;;1.50;;
18445;SDS011;9352;50.888;4.466;2023-03-16T13:08:24;4.32;;;1.40;;
18445;SDS011;9352;50.888;4.466;2023-03-16T13:10:58;2.38;;;1.50;;
18445;SDS011;9352;50.888;4.466;2023-03-16T13:13:26;6.03;;;1.30;;
18445;SDS011;9352;50.888;4.466;2023-03-16T13:16:02;2.28;;;1.30;;
18445;SDS011;9352;50.888;4.466;2023-03-16T13:18:34;1.42;;;1.33;;
18445;SDS011;9352;50.888;4.466;2023-03-16T13:21:12;3.70;;;1.65;;
18445;SDS011;9352;50.888;4.466;2023-03-16T13:23:46;2.97;;;1.55;;
18445;SDS011;9352;50.888;4.466;2023-03-16T13:26:22;1.80;;;1.70;;
18445;SDS011;9352;50.888;4.466;2023-03-16T13:29:02;2.22;;;2.00;;
18445;SDS011;9352;50.888;4.466;2023-03-16T13:31:43;2.40;;;1.40;;
18445;SDS011;9352;50.888;4.466;2023-03-16T13:34:12;4.72;;;1.30;;
18445;SDS011;9352;50.888;4.466;2023-03-16T13:36:44;3.55;;;1.38;;
18445;SDS011;9352;50.888;4.466;2023-03-16T13:39:13;1.52;;;1.33;;
18445;SDS011;9352;50.888;4.466;2023-03-16T13:41:53;4.60;;;1.48;;
18445;SDS011;9352;50.888;4.466;2023-03-16T13:44:24;2.15;;;1.33;;
18445;SDS011;9352;50.888;4.466;2023-03-16T13:46:54;2.80;;;1.35;;
18445;SDS011;9352;50.888;4.466;2023-03-16T13:49:22;2.50;;;1.52;;
18445;SDS011;9352;50.888;4.466;2023-03-16T13:51:49;1.33;;;1.17;;
18445;SDS011;9352;50.888;4.466;2023-03-16T13:54:20;1.55;;;1.45;;
18445;SDS011;9352;50.888;4.466;2023-03-16T13:56:49;1.88;;;1.30;;
18445;SDS011;9352;50.888;4.466;2023-03-16T13:59:17;1.20;;;1.15;;
18445;SDS011;9352;50.888;4.466;2023-03-16T14:01:45;1.30;;;1.20;;
18445;SDS011;9352;50.888;4.466;2023-03-16T14:04:15;3.22;;;1.60;;
18445;SDS011;9352;50.888;4.466;2023-03-16T14:06:51;3.20;;;1.15;;
18445;SDS011;9352;50.888;4.466;2023-03-16T14:09:20;3.50;;;1.30;;
18445;SDS011;9352;50.888;4.466;2023-03-16T14:11:51;5.20;;;1.67;;
18445;SDS011;9352;50.888;4.466;2023-03-16T14:14:22;1.60;;;1.30;;
18445;SDS011;9352;50.888;4.466;2023-03-16T14:16:50;3.08;;;1.35;;
18445;SDS011;9352;50.888;4.466;2023-03-16T14:19:21;3.47;;;1.30;;
18445;SDS011;9352;50.888;4.466;2023-03-16T14:22:00;1.38;;;1.27;;
18445;SDS011;9352;50.888;4.466;2023-03-16T14:24:30;4.53;;;1.25;;
18445;SDS011;9352;50.888;4.466;2023-03-16T14:27:08;2.67;;;1.38;;
18445;SDS011;9352;50.888;4.466;2023-03-16T14:29:42;5.03;;;1.42;;
18445;SDS011;9352;50.888;4.466;2023-03-16T14:32:20;2.20;;;1.60;;
18445;SDS011;9352;50.888;4.466;2023-03-16T14:34:58;2.00;;;1.77;;
18445;SDS011;9352;50.888;4.466;2023-03-16T14:37:35;3.85;;;1.40;;
18445;SDS011;9352;50.888;4.466;2023-03-16T14:40:04;1.35;;;1.23;;
18445;SDS011;9352;50.888;4.466;2023-03-16T14:42:33;6.10;;;1.60;;
18445;SDS011;9352;50.888;4.466;2023-03-16T14:45:01;6.72;;;1.50;;
18445;SDS011;9352;50.888;4.466;2023-03-16T14:47:32;3.90;;;1.30;;
18445;SDS011;9352;50.888;4.466;2023-03-16T14:50:08;2.25;;;1.30;;
18445;SDS011;9352;50.888;4.466;2023-03-16T14:52:39;6.47;;;1.48;;
18445;SDS011;9352;50.888;4.466;2023-03-16T14:55:09;5.25;;;1.48;;
18445;SDS011;9352;50.888;4.466;2023-03-16T14:57:39;4.55;;;1.25;;
18445;SDS011;9352;50.888;4.466;2023-03-16T15:00:07;3.08;;;1.20;;
18445;SDS011;9352;50.888;4.466;2023-03-16T15:02:36;2.75;;;1.30;;
18445;SDS011;9352;50.888;4.466;2023-03-16T15:05:07;3.22;;;1.65;;
18445;SDS011;9352;50.888;4.466;2023-03-16T15:07:36;4.22;;;1.40;;
18445;SDS011;9352;50.888;4.466;2023-03-16T15:10:05;3.20;;;1.60;;
18445;SDS011;9352;50.888;4.466;2023-03-16T15:12:37;1.38;;;1.30;;
18445;SDS011;9352;50.888;4.466;2023-03-16T15:15:08;3.38;;;1.40;;
18445;SDS011;9352;50.888;4.466;2023-03-16T15:17:42;1.85;;;1.30;;